Climatologie pour Saint-Brevin les Pins
Jour • Résumé pour décembre 8, 2017 Système :  Mixte    Anglais   Métrique
« - 1 jour
+ 1 jour »
Jour Semaine Mois Année Personnalisé
  Maximum : Minimum : Moyenne :
Température sous abri : 50.4 °F /  10.2 °C 36 °F /  2.2 °C 43.5 °F /  6.4 °C
Point de rosée : 43.3 °F /  6.3 °C 33.3 °F /  0.7 °C 38.3 °F /  3.5 °C
Humidité : 95 % 62 % 82 %
Vitesse du vent : 16 mph /  25.7 km/h - 5 mph /  8 km/h
Rafale : 20 mph /  32.2 km/h - -
Direction :- - NW
Pression : 30.3 in /  1026.3 hPa 30.1 in /  1020.5 hPa -
Précipitations : 0 in /  0.0 mm    
Historical Graphs
 
 
Tableau de données pour décembre 8, 2017
Heure Tempé Pt rosée Pression Vent Vitesse Rafale Humidité Taux pluie (/hr) Soleil
00:10 44.1 °F /  6.7 °C 42.1 °F /  5.6 °C 30.1 in /  1020.5 hPa Calm   7 mph /  11.3 km/h 93 % 0 in /  0.0 mm 0 W/m2
00:15 43.7 °F /  6.5 °C 41.7 °F /  5.4 °C 30.1 in /  1020.5 hPa WNW 2 mph /  3.2 km/h 7 mph /  11.3 km/h 93 % 0 in /  0.0 mm 0 W/m2
00:20 43.5 °F /  6.4 °C 41.9 °F /  5.5 °C 30.1 in /  1020.5 hPa NW 3 mph /  4.8 km/h 7 mph /  11.3 km/h 94 % 0 in /  0.0 mm 0 W/m2
00:25 43.9 °F /  6.6 °C 42.3 °F /  5.7 °C 30.2 in /  1020.9 hPa NW 5 mph /  8.0 km/h 10 mph /  16.1 km/h 94 % 0 in /  0.0 mm 0 W/m2
00:30 44.4 °F /  6.9 °C 43 °F /  6.1 °C 30.2 in /  1020.9 hPa NW 3 mph /  4.8 km/h 10 mph /  16.1 km/h 95 % 0 in /  0.0 mm 0 W/m2
00:35 44.8 °F /  7.1 °C 43.3 °F /  6.3 °C 30.2 in /  1020.9 hPa NW 5 mph /  8.0 km/h 9 mph /  14.5 km/h 95 % 0 in /  0.0 mm 0 W/m2
00:40 44.8 °F /  7.1 °C 43.2 °F /  6.2 °C 30.2 in /  1020.9 hPa WNW 2 mph /  3.2 km/h 9 mph /  14.5 km/h 94 % 0 in /  0.0 mm 0 W/m2
00:45 44.6 °F /  7.0 °C 43 °F /  6.1 °C 30.2 in /  1020.9 hPa WNW 4 mph /  6.4 km/h 9 mph /  14.5 km/h 94 % 0 in /  0.0 mm 0 W/m2
00:50 44.2 °F /  6.8 °C 42.3 °F /  5.7 °C 30.2 in /  1020.9 hPa NNW 2 mph /  3.2 km/h 6 mph /  9.7 km/h 93 % 0 in /  0.0 mm 0 W/m2
01:00 43.9 °F /  6.6 °C 42.3 °F /  5.7 °C 30.2 in /  1020.9 hPa Calm   7 mph /  11.3 km/h 94 % 0 in /  0.0 mm 0 W/m2
01:05 43.9 °F /  6.6 °C 42.3 °F /  5.7 °C 30.2 in /  1020.9 hPa NW 2 mph /  3.2 km/h 8 mph /  12.9 km/h 94 % 0 in /  0.0 mm 0 W/m2
01:20 43.9 °F /  6.6 °C 42.3 °F /  5.7 °C 30.2 in /  1020.9 hPa NNW 6 mph /  9.7 km/h 9 mph /  14.5 km/h 94 % 0 in /  0.0 mm 0 W/m2
01:25 43.9 °F /  6.6 °C 42.3 °F /  5.7 °C 30.2 in /  1020.9 hPa WNW 6 mph /  9.7 km/h 9 mph /  14.5 km/h 94 % 0 in /  0.0 mm 0 W/m2
01:30 44.1 °F /  6.7 °C 42.4 °F /  5.8 °C 30.2 in /  1020.9 hPa WNW 1 mph /  1.6 km/h 9 mph /  14.5 km/h 94 % 0 in /  0.0 mm 0 W/m2
01:35 44.1 °F /  6.7 °C 42.4 °F /  5.8 °C 30.2 in /  1020.9 hPa NW 4 mph /  6.4 km/h 8 mph /  12.9 km/h 94 % 0 in /  0.0 mm 0 W/m2
01:40 43.9 °F /  6.6 °C 42.3 °F /  5.7 °C 30.1 in /  1020.5 hPa WNW 3 mph /  4.8 km/h 8 mph /  12.9 km/h 94 % 0 in /  0.0 mm 0 W/m2
01:45 43.9 °F /  6.6 °C 41.9 °F /  5.5 °C 30.2 in /  1020.9 hPa NW 4 mph /  6.4 km/h 8 mph /  12.9 km/h 93 % 0 in /  0.0 mm 0 W/m2
01:55 43.5 °F /  6.4 °C 41.7 °F /  5.4 °C 30.2 in /  1020.9 hPa WNW 7 mph /  11.3 km/h 7 mph /  11.3 km/h 93 % 0 in /  0.0 mm 0 W/m2
02:00 43.5 °F /  6.4 °C 41.7 °F /  5.4 °C 30.2 in /  1020.9 hPa WNW 4 mph /  6.4 km/h 8 mph /  12.9 km/h 93 % 0 in /  0.0 mm 0 W/m2
02:05 43.5 °F /  6.4 °C 41.7 °F /  5.4 °C 30.2 in /  1020.9 hPa WNW 2 mph /  3.2 km/h 8 mph /  12.9 km/h 93 % 0 in /  0.0 mm 0 W/m2
02:10 43.5 °F /  6.4 °C 41.7 °F /  5.4 °C 30.2 in /  1021.2 hPa NW 3 mph /  4.8 km/h 8 mph /  12.9 km/h 93 % 0 in /  0.0 mm 0 W/m2
02:15 43.7 °F /  6.5 °C 41.7 °F /  5.4 °C 30.2 in /  1021.2 hPa NW 7 mph /  11.3 km/h 8 mph /  12.9 km/h 93 % 0 in /  0.0 mm 0 W/m2
02:20 43.9 °F /  6.6 °C 41.9 °F /  5.5 °C 30.2 in /  1021.2 hPa NW 6 mph /  9.7 km/h 8 mph /  12.9 km/h 93 % 0 in /  0.0 mm 0 W/m2
02:25 44.2 °F /  6.8 °C 42.6 °F /  5.9 °C 30.2 in /  1020.9 hPa WNW 4 mph /  6.4 km/h 9 mph /  14.5 km/h 94 % 0 in /  0.0 mm 0 W/m2
02:35 45 °F /  7.2 °C 43 °F /  6.1 °C 30.2 in /  1021.2 hPa NW 4 mph /  6.4 km/h 14 mph /  22.5 km/h 93 % 0 in /  0.0 mm 0 W/m2
02:40 45.1 °F /  7.3 °C 43 °F /  6.1 °C 30.2 in /  1021.2 hPa NW 5 mph /  8.0 km/h 11 mph /  17.7 km/h 92 % 0 in /  0.0 mm 0 W/m2
02:45 45.3 °F /  7.4 °C 43.2 °F /  6.2 °C 30.2 in /  1021.2 hPa WNW 4 mph /  6.4 km/h 11 mph /  17.7 km/h 92 % 0 in /  0.0 mm 0 W/m2
02:50 45.5 °F /  7.5 °C 43.3 °F /  6.3 °C 30.2 in /  1021.2 hPa NNW 4 mph /  6.4 km/h 9 mph /  14.5 km/h 92 % 0 in /  0.0 mm 0 W/m2
02:55 45.7 °F /  7.6 °C 43.2 °F /  6.2 °C 30.2 in /  1021.6 hPa NNW 7 mph /  11.3 km/h 9 mph /  14.5 km/h 91 % 0 in /  0.0 mm 0 W/m2
03:00 45.7 °F /  7.6 °C 43.2 °F /  6.2 °C 30.2 in /  1021.6 hPa WNW 7 mph /  11.3 km/h 8 mph /  12.9 km/h 91 % 0 in /  0.0 mm 0 W/m2
03:05 45.5 °F /  7.5 °C 42.8 °F /  6.0 °C 30.2 in /  1021.6 hPa NW 6 mph /  9.7 km/h 10 mph /  16.1 km/h 90 % 0 in /  0.0 mm 0 W/m2
03:10 45.3 °F /  7.4 °C 42.6 °F /  5.9 °C 30.2 in /  1021.6 hPa West 3 mph /  4.8 km/h 11 mph /  17.7 km/h 90 % 0 in /  0.0 mm 0 W/m2
03:15 45.3 °F /  7.4 °C 42.3 °F /  5.7 °C 30.2 in /  1021.6 hPa WNW 2 mph /  3.2 km/h 11 mph /  17.7 km/h 89 % 0 in /  0.0 mm 0 W/m2
03:20 45.1 °F /  7.3 °C 42.1 °F /  5.6 °C 30.2 in /  1021.6 hPa WNW 3 mph /  4.8 km/h 10 mph /  16.1 km/h 89 % 0 in /  0.0 mm 0 W/m2
03:25 45 °F /  7.2 °C 41.7 °F /  5.4 °C 30.2 in /  1021.6 hPa West 4 mph /  6.4 km/h 10 mph /  16.1 km/h 88 % 0 in /  0.0 mm 0 W/m2
03:35 44.8 °F /  7.1 °C 41 °F /  5.0 °C 30.2 in /  1021.6 hPa WNW 3 mph /  4.8 km/h 10 mph /  16.1 km/h 87 % 0 in /  0.0 mm 0 W/m2
03:50 44.4 °F /  6.9 °C 40.5 °F /  4.7 °C 30.2 in /  1021.6 hPa NW 5 mph /  8.0 km/h 9 mph /  14.5 km/h 86 % 0 in /  0.0 mm 0 W/m2
03:55 44.2 °F /  6.8 °C 40.5 °F /  4.7 °C 30.2 in /  1021.6 hPa NW 4 mph /  6.4 km/h 8 mph /  12.9 km/h 86 % 0 in /  0.0 mm 0 W/m2
04:00 44.2 °F /  6.8 °C 40.3 °F /  4.6 °C 30.2 in /  1021.6 hPa NW 3 mph /  4.8 km/h 10 mph /  16.1 km/h 86 % 0 in /  0.0 mm 0 W/m2
04:05 44.1 °F /  6.7 °C 40.1 °F /  4.5 °C 30.2 in /  1021.6 hPa WNW 1 mph /  1.6 km/h 10 mph /  16.1 km/h 86 % 0 in /  0.0 mm 0 W/m2
04:10 44.1 °F /  6.7 °C 40.1 °F /  4.5 °C 30.2 in /  1021.6 hPa WNW 7 mph /  11.3 km/h 9 mph /  14.5 km/h 86 % 0 in /  0.0 mm 0 W/m2
04:20 43.9 °F /  6.6 °C 39.9 °F /  4.4 °C 30.2 in /  1021.6 hPa NW 3 mph /  4.8 km/h 10 mph /  16.1 km/h 86 % 0 in /  0.0 mm 0 W/m2
04:30 43.5 °F /  6.4 °C 39.9 °F /  4.4 °C 30.2 in /  1021.6 hPa NW 5 mph /  8.0 km/h 10 mph /  16.1 km/h 87 % 0 in /  0.0 mm 0 W/m2
04:40 43.3 °F /  6.3 °C 39.7 °F /  4.3 °C 30.2 in /  1021.6 hPa WNW 4 mph /  6.4 km/h 10 mph /  16.1 km/h 87 % 0 in /  0.0 mm 0 W/m2
04:45 43.3 °F /  6.3 °C 40.1 °F /  4.5 °C 30.2 in /  1021.6 hPa NNW 5 mph /  8.0 km/h 9 mph /  14.5 km/h 88 % 0 in /  0.0 mm 0 W/m2
04:50 43.3 °F /  6.3 °C 40.1 °F /  4.5 °C 30.2 in /  1021.6 hPa WNW 5 mph /  8.0 km/h 9 mph /  14.5 km/h 88 % 0 in /  0.0 mm 0 W/m2
04:55 43.3 °F /  6.3 °C 40.1 °F /  4.5 °C 30.2 in /  1021.6 hPa NNW 8 mph /  12.9 km/h 10 mph /  16.1 km/h 88 % 0 in /  0.0 mm 0 W/m2
05:05 43.3 °F /  6.3 °C 39.9 °F /  4.4 °C 30.2 in /  1021.6 hPa NW 6 mph /  9.7 km/h 10 mph /  16.1 km/h 88 % 0 in /  0.0 mm 0 W/m2
05:10 43.3 °F /  6.3 °C 39.9 °F /  4.4 °C 30.2 in /  1021.9 hPa NW 3 mph /  4.8 km/h 9 mph /  14.5 km/h 88 % 0 in /  0.0 mm 0 W/m2
05:15 43.3 °F /  6.3 °C 39.9 °F /  4.4 °C 30.2 in /  1021.9 hPa WNW 2 mph /  3.2 km/h 8 mph /  12.9 km/h 88 % 0 in /  0.0 mm 0 W/m2
05:25 43.2 °F /  6.2 °C 40.1 °F /  4.5 °C 30.2 in /  1021.9 hPa WNW 2 mph /  3.2 km/h 11 mph /  17.7 km/h 89 % 0 in /  0.0 mm 0 W/m2
05:35 43.3 °F /  6.3 °C 40.3 °F /  4.6 °C 30.2 in /  1021.9 hPa NW 4 mph /  6.4 km/h 13 mph /  20.9 km/h 89 % 0 in /  0.0 mm 0 W/m2
05:40 43.3 °F /  6.3 °C 40.3 °F /  4.6 °C 30.2 in /  1021.9 hPa NW 4 mph /  6.4 km/h 12 mph /  19.3 km/h 89 % 0 in /  0.0 mm 0 W/m2
05:50 43.3 °F /  6.3 °C 40.5 °F /  4.7 °C 30.2 in /  1021.9 hPa NW 7 mph /  11.3 km/h 14 mph /  22.5 km/h 89 % 0 in /  0.0 mm 0 W/m2
05:55 43.3 °F /  6.3 °C 40.1 °F /  4.5 °C 30.2 in /  1021.9 hPa WNW 9 mph /  14.5 km/h 13 mph /  20.9 km/h 88 % 0 in /  0.0 mm 0 W/m2
06:00 43.3 °F /  6.3 °C 40.1 °F /  4.5 °C 30.2 in /  1022.2 hPa NNW 2 mph /  3.2 km/h 11 mph /  17.7 km/h 88 % 0 in /  0.0 mm 0 W/m2
06:10 43.3 °F /  6.3 °C 39.9 °F /  4.4 °C 30.2 in /  1022.2 hPa NW 6 mph /  9.7 km/h 9 mph /  14.5 km/h 88 % 0 in /  0.0 mm 0 W/m2
06:15 43.3 °F /  6.3 °C 39.9 °F /  4.4 °C 30.2 in /  1022.2 hPa WNW 6 mph /  9.7 km/h 9 mph /  14.5 km/h 88 % 0 in /  0.0 mm 0 W/m2
06:20 43.2 °F /  6.2 °C 39.9 °F /  4.4 °C 30.2 in /  1022.2 hPa NW 6 mph /  9.7 km/h 9 mph /  14.5 km/h 88 % 0 in /  0.0 mm 0 W/m2
06:30 43 °F /  6.1 °C 39.6 °F /  4.2 °C 30.2 in /  1022.2 hPa NW 5 mph /  8.0 km/h 9 mph /  14.5 km/h 88 % 0 in /  0.0 mm 0 W/m2
06:35 42.8 °F /  6.0 °C 39.6 °F /  4.2 °C 30.2 in /  1022.2 hPa NW 2 mph /  3.2 km/h 9 mph /  14.5 km/h 88 % 0 in /  0.0 mm 0 W/m2
06:40 42.6 °F /  5.9 °C 39.4 °F /  4.1 °C 30.2 in /  1022.2 hPa WNW 7 mph /  11.3 km/h 8 mph /  12.9 km/h 88 % 0 in /  0.0 mm 0 W/m2
06:45 42.4 °F /  5.8 °C 39.2 °F /  4.0 °C 30.2 in /  1022.2 hPa NW 2 mph /  3.2 km/h 8 mph /  12.9 km/h 88 % 0 in /  0.0 mm 0 W/m2
06:55 42.3 °F /  5.7 °C 39.2 °F /  4.0 °C 30.2 in /  1022.6 hPa WNW 3 mph /  4.8 km/h 7 mph /  11.3 km/h 89 % 0 in /  0.0 mm 0 W/m2
07:00 42.1 °F /  5.6 °C 38.8 °F /  3.8 °C 30.2 in /  1022.6 hPa NW 1 mph /  1.6 km/h 6 mph /  9.7 km/h 88 % 0 in /  0.0 mm 0 W/m2
07:10 41.7 °F /  5.4 °C 38.5 °F /  3.6 °C 30.2 in /  1022.9 hPa NW 3 mph /  4.8 km/h 7 mph /  11.3 km/h 88 % 0 in /  0.0 mm 0 W/m2
07:15 41.5 °F /  5.3 °C 38.3 °F /  3.5 °C 30.2 in /  1022.9 hPa NNW 3 mph /  4.8 km/h 7 mph /  11.3 km/h 88 % 0 in /  0.0 mm 0 W/m2
07:25 41.2 °F /  5.1 °C 38.1 °F /  3.4 °C 30.2 in /  1022.9 hPa NW 3 mph /  4.8 km/h 8 mph /  12.9 km/h 89 % 0 in /  0.0 mm 0 W/m2
07:30 41 °F /  5.0 °C 37.9 °F /  3.3 °C 30.2 in /  1022.9 hPa WNW 4 mph /  6.4 km/h 7 mph /  11.3 km/h 89 % 0 in /  0.0 mm 0 W/m2
07:35 40.8 °F /  4.9 °C 38.1 °F /  3.4 °C 30.2 in /  1022.9 hPa NW 5 mph /  8.0 km/h 7 mph /  11.3 km/h 90 % 0 in /  0.0 mm 0 W/m2
07:40 40.8 °F /  4.9 °C 38.1 °F /  3.4 °C 30.2 in /  1022.9 hPa Calm   7 mph /  11.3 km/h 90 % 0 in /  0.0 mm 0 W/m2
07:45 40.6 °F /  4.8 °C 37.9 °F /  3.3 °C 30.2 in /  1022.9 hPa WNW 4 mph /  6.4 km/h 7 mph /  11.3 km/h 90 % 0 in /  0.0 mm 0 W/m2
07:55 40.5 °F /  4.7 °C 37.8 °F /  3.2 °C 30.2 in /  1022.9 hPa NW 2 mph /  3.2 km/h 6 mph /  9.7 km/h 90 % 0 in /  0.0 mm 0 W/m2
08:00 40.3 °F /  4.6 °C 37.6 °F /  3.1 °C 30.2 in /  1022.9 hPa NW 3 mph /  4.8 km/h 6 mph /  9.7 km/h 90 % 0 in /  0.0 mm 0 W/m2
08:05 40.3 °F /  4.6 °C 37.6 °F /  3.1 °C 30.2 in /  1022.9 hPa NW 6 mph /  9.7 km/h 10 mph /  16.1 km/h 90 % 0 in /  0.0 mm 0 W/m2
08:10 40.1 °F /  4.5 °C 37.8 °F /  3.2 °C 30.2 in /  1023.2 hPa NW 3 mph /  4.8 km/h 10 mph /  16.1 km/h 91 % 0 in /  0.0 mm 0 W/m2
08:25 40.1 °F /  4.5 °C 37.8 °F /  3.2 °C 30.2 in /  1023.2 hPa NW 5 mph /  8.0 km/h 8 mph /  12.9 km/h 91 % 0 in /  0.0 mm 0 W/m2
08:35 40.3 °F /  4.6 °C 38.1 °F /  3.4 °C 30.2 in /  1023.2 hPa NW 6 mph /  9.7 km/h 10 mph /  16.1 km/h 92 % 0 in /  0.0 mm 0 W/m2
08:40 40.5 °F /  4.7 °C 38.3 °F /  3.5 °C 30.2 in /  1023.2 hPa WNW 3 mph /  4.8 km/h 7 mph /  11.3 km/h 92 % 0 in /  0.0 mm 0 W/m2
08:45 40.5 °F /  4.7 °C 38.3 °F /  3.5 °C 30.2 in /  1023.6 hPa West 4 mph /  6.4 km/h 12 mph /  19.3 km/h 92 % 0 in /  0.0 mm 5 W/m2
08:50 40.6 °F /  4.8 °C 38.5 °F /  3.6 °C 30.2 in /  1023.6 hPa NW 3 mph /  4.8 km/h 12 mph /  19.3 km/h 92 % 0 in /  0.0 mm 7 W/m2
08:55 40.6 °F /  4.8 °C 38.5 °F /  3.6 °C 30.2 in /  1023.6 hPa NW 5 mph /  8.0 km/h 11 mph /  17.7 km/h 92 % 0 in /  0.0 mm 9 W/m2
09:00 40.8 °F /  4.9 °C 38.7 °F /  3.7 °C 30.2 in /  1023.6 hPa NW 4 mph /  6.4 km/h 13 mph /  20.9 km/h 92 % 0 in /  0.0 mm 12 W/m2
09:05 40.8 °F /  4.9 °C 38.8 °F /  3.8 °C 30.2 in /  1023.6 hPa WNW 3 mph /  4.8 km/h 13 mph /  20.9 km/h 92 % 0 in /  0.0 mm 14 W/m2
09:10 41 °F /  5.0 °C 38.8 °F /  3.8 °C 30.2 in /  1023.9 hPa NW 3 mph /  4.8 km/h 9 mph /  14.5 km/h 92 % 0 in /  0.0 mm 18 W/m2
09:15 41.2 °F /  5.1 °C 39 °F /  3.9 °C 30.2 in /  1023.9 hPa WNW 4 mph /  6.4 km/h 9 mph /  14.5 km/h 92 % 0 in /  0.0 mm 19 W/m2
09:20 41.2 °F /  5.1 °C 39 °F /  3.9 °C 30.2 in /  1023.9 hPa NNW 4 mph /  6.4 km/h 9 mph /  14.5 km/h 92 % 0 in /  0.0 mm 21 W/m2
09:25 41.4 °F /  5.2 °C 39.2 °F /  4.0 °C 30.2 in /  1023.9 hPa NW 7 mph /  11.3 km/h 9 mph /  14.5 km/h 92 % 0 in /  0.0 mm 25 W/m2
09:30 41.5 °F /  5.3 °C 39 °F /  3.9 °C 30.2 in /  1023.9 hPa NNW 7 mph /  11.3 km/h 10 mph /  16.1 km/h 91 % 0 in /  0.0 mm 26 W/m2
09:35 41.7 °F /  5.4 °C 39.2 °F /  4.0 °C 30.2 in /  1023.9 hPa NW 5 mph /  8.0 km/h 11 mph /  17.7 km/h 91 % 0 in /  0.0 mm 28 W/m2
09:45 41.9 °F /  5.5 °C 39.4 °F /  4.1 °C 30.2 in /  1023.9 hPa NNW 10 mph /  16.1 km/h 10 mph /  16.1 km/h 91 % 0 in /  0.0 mm 30 W/m2
09:50 42.1 °F /  5.6 °C 39.2 °F /  4.0 °C 30.2 in /  1023.9 hPa WNW 5 mph /  8.0 km/h 10 mph /  16.1 km/h 90 % 0 in /  0.0 mm 32 W/m2
10:00 42.4 °F /  5.8 °C 39.7 °F /  4.3 °C 30.2 in /  1023.9 hPa NNW 5 mph /  8.0 km/h 12 mph /  19.3 km/h 90 % 0 in /  0.0 mm 35 W/m2
10:05 42.6 °F /  5.9 °C 39.6 °F /  4.2 °C 30.2 in /  1023.9 hPa NW 6 mph /  9.7 km/h 13 mph /  20.9 km/h 89 % 0 in /  0.0 mm 37 W/m2
10:10 42.8 °F /  6.0 °C 39.6 °F /  4.2 °C 30.3 in /  1024.3 hPa WNW 8 mph /  12.9 km/h 13 mph /  20.9 km/h 88 % 0 in /  0.0 mm 40 W/m2
10:20 43.3 °F /  6.3 °C 39.7 °F /  4.3 °C 30.3 in /  1024.3 hPa North 5 mph /  8.0 km/h 13 mph /  20.9 km/h 87 % 0 in /  0.0 mm 142 W/m2
10:25 44.2 °F /  6.8 °C 39.9 °F /  4.4 °C 30.3 in /  1024.6 hPa NNW 5 mph /  8.0 km/h 15 mph /  24.1 km/h 85 % 0 in /  0.0 mm 153 W/m2
10:30 44.6 °F /  7.0 °C 39.7 °F /  4.3 °C 30.3 in /  1024.9 hPa NW 8 mph /  12.9 km/h 15 mph /  24.1 km/h 83 % 0 in /  0.0 mm 163 W/m2
10:35 45 °F /  7.2 °C 39.7 °F /  4.3 °C 30.3 in /  1024.9 hPa WNW 2 mph /  3.2 km/h 15 mph /  24.1 km/h 82 % 0 in /  0.0 mm 176 W/m2
10:40 45.1 °F /  7.3 °C 39.9 °F /  4.4 °C 30.3 in /  1024.9 hPa NNW 7 mph /  11.3 km/h 15 mph /  24.1 km/h 82 % 0 in /  0.0 mm 185 W/m2
10:50 45.7 °F /  7.6 °C 39.7 °F /  4.3 °C 30.3 in /  1024.9 hPa WNW 5 mph /  8.0 km/h 16 mph /  25.7 km/h 80 % 0 in /  0.0 mm 202 W/m2
10:55 45.9 °F /  7.7 °C 39.9 °F /  4.4 °C 30.3 in /  1024.9 hPa WNW 2 mph /  3.2 km/h 16 mph /  25.7 km/h 80 % 0 in /  0.0 mm 214 W/m2
11:00 46 °F /  7.8 °C 40.1 °F /  4.5 °C 30.3 in /  1024.9 hPa NW 6 mph /  9.7 km/h 12 mph /  19.3 km/h 80 % 0 in /  0.0 mm 225 W/m2
11:05 46.2 °F /  7.9 °C 40.1 °F /  4.5 °C 30.3 in /  1024.9 hPa West 7 mph /  11.3 km/h 14 mph /  22.5 km/h 79 % 0 in /  0.0 mm 236 W/m2
11:10 46.2 °F /  7.9 °C 40.1 °F /  4.5 °C 30.3 in /  1024.9 hPa WNW 10 mph /  16.1 km/h 15 mph /  24.1 km/h 79 % 0 in /  0.0 mm 239 W/m2
11:15 46.4 °F /  8.0 °C 39.6 °F /  4.2 °C 30.3 in /  1024.9 hPa WNW 4 mph /  6.4 km/h 16 mph /  25.7 km/h 77 % 0 in /  0.0 mm 248 W/m2
11:25 46.6 °F /  8.1 °C 39.7 °F /  4.3 °C 30.3 in /  1024.9 hPa NW 12 mph /  19.3 km/h 17 mph /  27.4 km/h 77 % 0 in /  0.0 mm 258 W/m2
11:35 46.9 °F /  8.3 °C 39.7 °F /  4.3 °C 30.3 in /  1024.9 hPa WNW 8 mph /  12.9 km/h 15 mph /  24.1 km/h 76 % 0 in /  0.0 mm 267 W/m2
11:40 46.9 °F /  8.3 °C 40.1 °F /  4.5 °C 30.3 in /  1025.3 hPa NNW 7 mph /  11.3 km/h 15 mph /  24.1 km/h 77 % 0 in /  0.0 mm 272 W/m2
11:45 47.1 °F /  8.4 °C 39.9 °F /  4.4 °C 30.3 in /  1025.3 hPa WNW 5 mph /  8.0 km/h 13 mph /  20.9 km/h 76 % 0 in /  0.0 mm 281 W/m2
11:55 46.9 °F /  8.3 °C 38.8 °F /  3.8 °C 30.3 in /  1025.3 hPa WNW 8 mph /  12.9 km/h 18 mph /  29.0 km/h 73 % 0 in /  0.0 mm 288 W/m2
12:00 47.1 °F /  8.4 °C 39.7 °F /  4.3 °C 30.3 in /  1025.3 hPa North 7 mph /  11.3 km/h 18 mph /  29.0 km/h 75 % 0 in /  0.0 mm 258 W/m2
12:15 47.1 °F /  8.4 °C 38.3 °F /  3.5 °C 30.3 in /  1025.3 hPa NW 9 mph /  14.5 km/h 18 mph /  29.0 km/h 71 % 0 in /  0.0 mm 304 W/m2
12:25 47.7 °F /  8.7 °C 39 °F /  3.9 °C 30.3 in /  1025.3 hPa North 9 mph /  14.5 km/h 15 mph /  24.1 km/h 72 % 0 in /  0.0 mm 311 W/m2
12:30 47.5 °F /  8.6 °C 38.8 °F /  3.8 °C 30.3 in /  1024.9 hPa WNW 6 mph /  9.7 km/h 15 mph /  24.1 km/h 72 % 0 in /  0.0 mm 318 W/m2
12:35 47.7 °F /  8.7 °C 38.8 °F /  3.8 °C 30.3 in /  1024.9 hPa NW 5 mph /  8.0 km/h 14 mph /  22.5 km/h 71 % 0 in /  0.0 mm 316 W/m2
12:40 47.8 °F /  8.8 °C 39.4 °F /  4.1 °C 30.3 in /  1024.9 hPa WNW 7 mph /  11.3 km/h 14 mph /  22.5 km/h 72 % 0 in /  0.0 mm 318 W/m2
12:45 48.2 °F /  9.0 °C 39.2 °F /  4.0 °C 30.3 in /  1024.9 hPa NW 6 mph /  9.7 km/h 14 mph /  22.5 km/h 71 % 0 in /  0.0 mm 323 W/m2
12:50 48.4 °F /  9.1 °C 38.7 °F /  3.7 °C 30.3 in /  1024.9 hPa WNW 12 mph /  19.3 km/h 18 mph /  29.0 km/h 69 % 0 in /  0.0 mm 323 W/m2
12:55 48.6 °F /  9.2 °C 38.8 °F /  3.8 °C 30.3 in /  1024.9 hPa NNE 16 mph /  25.7 km/h 18 mph /  29.0 km/h 69 % 0 in /  0.0 mm 323 W/m2
13:00 48.6 °F /  9.2 °C 38.8 °F /  3.8 °C 30.3 in /  1024.9 hPa WNW 3 mph /  4.8 km/h 17 mph /  27.4 km/h 69 % 0 in /  0.0 mm 322 W/m2
13:05 48 °F /  8.9 °C 37.9 °F /  3.3 °C 30.3 in /  1024.9 hPa NNW 7 mph /  11.3 km/h 20 mph /  32.2 km/h 68 % 0 in /  0.0 mm 323 W/m2
13:10 48 °F /  8.9 °C 38.5 °F /  3.6 °C 30.3 in /  1024.9 hPa NW 8 mph /  12.9 km/h 20 mph /  32.2 km/h 69 % 0 in /  0.0 mm 322 W/m2
13:15 48.4 °F /  9.1 °C 37.8 °F /  3.2 °C 30.3 in /  1024.9 hPa NW 7 mph /  11.3 km/h 17 mph /  27.4 km/h 67 % 0 in /  0.0 mm 320 W/m2
13:20 48.4 °F /  9.1 °C 37.8 °F /  3.2 °C 30.3 in /  1024.6 hPa NW 4 mph /  6.4 km/h 17 mph /  27.4 km/h 67 % 0 in /  0.0 mm 320 W/m2
13:25 48.6 °F /  9.2 °C 38.5 °F /  3.6 °C 30.3 in /  1024.6 hPa WNW 3 mph /  4.8 km/h 15 mph /  24.1 km/h 68 % 0 in /  0.0 mm 316 W/m2
13:35 48.7 °F /  9.3 °C 38.3 °F /  3.5 °C 30.3 in /  1024.6 hPa NW 8 mph /  12.9 km/h 17 mph /  27.4 km/h 67 % 0 in /  0.0 mm 311 W/m2
13:40 48.7 °F /  9.3 °C 38.7 °F /  3.7 °C 30.3 in /  1024.6 hPa NW 8 mph /  12.9 km/h 17 mph /  27.4 km/h 68 % 0 in /  0.0 mm 309 W/m2
13:45 48.6 °F /  9.2 °C 38.5 °F /  3.6 °C 30.3 in /  1024.6 hPa WNW 4 mph /  6.4 km/h 16 mph /  25.7 km/h 68 % 0 in /  0.0 mm 308 W/m2
13:50 48.6 °F /  9.2 °C 38.5 °F /  3.6 °C 30.3 in /  1024.6 hPa NW 6 mph /  9.7 km/h 16 mph /  25.7 km/h 68 % 0 in /  0.0 mm 299 W/m2
13:55 48.7 °F /  9.3 °C 39.4 °F /  4.1 °C 30.3 in /  1024.6 hPa NW 8 mph /  12.9 km/h 15 mph /  24.1 km/h 70 % 0 in /  0.0 mm 294 W/m2
14:00 48.9 °F /  9.4 °C 39.9 °F /  4.4 °C 30.3 in /  1024.6 hPa NNW 11 mph /  17.7 km/h 16 mph /  25.7 km/h 71 % 0 in /  0.0 mm 295 W/m2
14:05 48.6 °F /  9.2 °C 37.8 °F /  3.2 °C 30.3 in /  1024.3 hPa NNW 9 mph /  14.5 km/h 16 mph /  25.7 km/h 66 % 0 in /  0.0 mm 294 W/m2
14:10 48.4 °F /  9.1 °C 36.7 °F /  2.6 °C 30.3 in /  1024.6 hPa NW 7 mph /  11.3 km/h 19 mph /  30.6 km/h 64 % 0 in /  0.0 mm 283 W/m2
14:20 48.4 °F /  9.1 °C 36.3 °F /  2.4 °C 30.3 in /  1024.6 hPa NW 9 mph /  14.5 km/h 17 mph /  27.4 km/h 63 % 0 in /  0.0 mm 274 W/m2
14:30 48.4 °F /  9.1 °C 36.3 °F /  2.4 °C 30.3 in /  1024.6 hPa West 9 mph /  14.5 km/h 16 mph /  25.7 km/h 63 % 0 in /  0.0 mm 262 W/m2
14:35 48.4 °F /  9.1 °C 36.3 °F /  2.4 °C 30.3 in /  1024.3 hPa NW 6 mph /  9.7 km/h 17 mph /  27.4 km/h 63 % 0 in /  0.0 mm 262 W/m2
14:40 48.4 °F /  9.1 °C 36.3 °F /  2.4 °C 30.3 in /  1024.3 hPa WNW 9 mph /  14.5 km/h 19 mph /  30.6 km/h 63 % 0 in /  0.0 mm 339 W/m2
14:45 49.6 °F /  9.8 °C 38.3 °F /  3.5 °C 30.3 in /  1024.6 hPa NNW 6 mph /  9.7 km/h 19 mph /  30.6 km/h 65 % 0 in /  0.0 mm 357 W/m2
14:50 50.4 °F /  10.2 °C 37.8 °F /  3.2 °C 30.3 in /  1024.6 hPa West 7 mph /  11.3 km/h 16 mph /  25.7 km/h 62 % 0 in /  0.0 mm 334 W/m2
14:55 50.4 °F /  10.2 °C 37.8 °F /  3.2 °C 30.3 in /  1024.6 hPa North 10 mph /  16.1 km/h 16 mph /  25.7 km/h 62 % 0 in /  0.0 mm 338 W/m2
15:00 49.5 °F /  9.7 °C 38.5 °F /  3.6 °C 30.3 in /  1024.6 hPa WNW 4 mph /  6.4 km/h 16 mph /  25.7 km/h 66 % 0 in /  0.0 mm 185 W/m2
15:05 49.5 °F /  9.7 °C 38.1 °F /  3.4 °C 30.3 in /  1024.6 hPa NNW 10 mph /  16.1 km/h 15 mph /  24.1 km/h 65 % 0 in /  0.0 mm 311 W/m2
15:10 48.7 °F /  9.3 °C 37.2 °F /  2.9 °C 30.3 in /  1024.6 hPa WNW 9 mph /  14.5 km/h 17 mph /  27.4 km/h 64 % 0 in /  0.0 mm 255 W/m2
15:15 48.4 °F /  9.1 °C 36.3 °F /  2.4 °C 30.3 in /  1024.3 hPa NW 9 mph /  14.5 km/h 17 mph /  27.4 km/h 63 % 0 in /  0.0 mm 216 W/m2
15:20 47.3 °F /  8.5 °C 36.1 °F /  2.3 °C 30.3 in /  1024.6 hPa WNW 5 mph /  8.0 km/h 15 mph /  24.1 km/h 65 % 0 in /  0.0 mm 183 W/m2
15:25 47.1 °F /  8.4 °C 36 °F /  2.2 °C 30.3 in /  1024.3 hPa NW 9 mph /  14.5 km/h 12 mph /  19.3 km/h 65 % 0 in /  0.0 mm 169 W/m2
15:35 46.8 °F /  8.2 °C 36 °F /  2.2 °C 30.3 in /  1024.6 hPa WNW 8 mph /  12.9 km/h 19 mph /  30.6 km/h 66 % 0 in /  0.0 mm 91 W/m2
15:40 46.6 °F /  8.1 °C 35.8 °F /  2.1 °C 30.3 in /  1024.6 hPa WNW 8 mph /  12.9 km/h 14 mph /  22.5 km/h 66 % 0 in /  0.0 mm 74 W/m2
15:45 46.2 °F /  7.9 °C 36 °F /  2.2 °C 30.3 in /  1024.6 hPa NNW 7 mph /  11.3 km/h 18 mph /  29.0 km/h 67 % 0 in /  0.0 mm 51 W/m2
15:55 46 °F /  7.8 °C 35.4 °F /  1.9 °C 30.3 in /  1024.6 hPa NW 7 mph /  11.3 km/h 16 mph /  25.7 km/h 66 % 0 in /  0.0 mm 62 W/m2
16:00 46 °F /  7.8 °C 35.2 °F /  1.8 °C 30.3 in /  1024.6 hPa North 9 mph /  14.5 km/h 19 mph /  30.6 km/h 66 % 0 in /  0.0 mm 74 W/m2
16:10 45.7 °F /  7.6 °C 35.6 °F /  2.0 °C 30.3 in /  1024.6 hPa NW 11 mph /  17.7 km/h 16 mph /  25.7 km/h 68 % 0 in /  0.0 mm 37 W/m2
16:15 45.3 °F /  7.4 °C 35.8 °F /  2.1 °C 30.3 in /  1024.6 hPa NW 4 mph /  6.4 km/h 16 mph /  25.7 km/h 69 % 0 in /  0.0 mm 44 W/m2
16:20 45.1 °F /  7.3 °C 36 °F /  2.2 °C 30.3 in /  1024.6 hPa NW 7 mph /  11.3 km/h 13 mph /  20.9 km/h 70 % 0 in /  0.0 mm 30 W/m2
16:25 44.8 °F /  7.1 °C 36 °F /  2.2 °C 30.3 in /  1024.6 hPa NNW 6 mph /  9.7 km/h 14 mph /  22.5 km/h 71 % 0 in /  0.0 mm 28 W/m2
16:35 44.4 °F /  6.9 °C 35.6 °F /  2.0 °C 30.3 in /  1024.6 hPa North 1 mph /  1.6 km/h 13 mph /  20.9 km/h 71 % 0 in /  0.0 mm 19 W/m2
16:45 43.9 °F /  6.6 °C 35.8 °F /  2.1 °C 30.3 in /  1024.6 hPa NW 7 mph /  11.3 km/h 13 mph /  20.9 km/h 73 % 0 in /  0.0 mm 14 W/m2
16:50 44.1 °F /  6.7 °C 36 °F /  2.2 °C 30.3 in /  1024.6 hPa NNW 5 mph /  8.0 km/h 12 mph /  19.3 km/h 73 % 0 in /  0.0 mm 12 W/m2
16:55 43.9 °F /  6.6 °C 35.8 °F /  2.1 °C 30.3 in /  1024.6 hPa WNW 6 mph /  9.7 km/h 11 mph /  17.7 km/h 73 % 0 in /  0.0 mm 9 W/m2
17:05 44.1 °F /  6.7 °C 35.6 °F /  2.0 °C 30.3 in /  1024.6 hPa West 5 mph /  8.0 km/h 12 mph /  19.3 km/h 72 % 0 in /  0.0 mm 7 W/m2
17:20 43.7 °F /  6.5 °C 35.2 °F /  1.8 °C 30.3 in /  1024.6 hPa NNW 4 mph /  6.4 km/h 9 mph /  14.5 km/h 72 % 0 in /  0.0 mm 0 W/m2
17:25 43.3 °F /  6.3 °C 35.1 °F /  1.7 °C 30.3 in /  1024.9 hPa WNW 3 mph /  4.8 km/h 10 mph /  16.1 km/h 72 % 0 in /  0.0 mm 0 W/m2
17:30 43.3 °F /  6.3 °C 35.2 °F /  1.8 °C 30.3 in /  1024.9 hPa WNW 6 mph /  9.7 km/h 11 mph /  17.7 km/h 73 % 0 in /  0.0 mm 0 W/m2
17:35 43.3 °F /  6.3 °C 35.6 °F /  2.0 °C 30.3 in /  1024.9 hPa NW 5 mph /  8.0 km/h 11 mph /  17.7 km/h 74 % 0 in /  0.0 mm 0 W/m2
17:40 43.2 °F /  6.2 °C 35.4 °F /  1.9 °C 30.3 in /  1024.9 hPa NW 5 mph /  8.0 km/h 10 mph /  16.1 km/h 74 % 0 in /  0.0 mm 0 W/m2
17:50 43.3 °F /  6.3 °C 36 °F /  2.2 °C 30.3 in /  1024.9 hPa WNW 3 mph /  4.8 km/h 9 mph /  14.5 km/h 75 % 0 in /  0.0 mm 0 W/m2
18:00 43.7 °F /  6.5 °C 36.3 °F /  2.4 °C 30.3 in /  1024.9 hPa NW 5 mph /  8.0 km/h 9 mph /  14.5 km/h 75 % 0 in /  0.0 mm 0 W/m2
18:15 43.2 °F /  6.2 °C 36.5 °F /  2.5 °C 30.3 in /  1024.9 hPa WNW 4 mph /  6.4 km/h 11 mph /  17.7 km/h 77 % 0 in /  0.0 mm 0 W/m2
18:20 43 °F /  6.1 °C 36.1 °F /  2.3 °C 30.3 in /  1024.9 hPa NW 4 mph /  6.4 km/h 13 mph /  20.9 km/h 77 % 0 in /  0.0 mm 0 W/m2
18:25 42.8 °F /  6.0 °C 35.8 °F /  2.1 °C 30.3 in /  1024.9 hPa WNW 4 mph /  6.4 km/h 13 mph /  20.9 km/h 76 % 0 in /  0.0 mm 0 W/m2
18:30 42.4 °F /  5.8 °C 35.8 °F /  2.1 °C 30.3 in /  1025.3 hPa NW 6 mph /  9.7 km/h 11 mph /  17.7 km/h 77 % 0 in /  0.0 mm 0 W/m2
18:35 42.4 °F /  5.8 °C 35.8 °F /  2.1 °C 30.3 in /  1025.3 hPa NW 4 mph /  6.4 km/h 13 mph /  20.9 km/h 77 % 0 in /  0.0 mm 0 W/m2
18:40 42.1 °F /  5.6 °C 35.8 °F /  2.1 °C 30.3 in /  1025.3 hPa NNW 5 mph /  8.0 km/h 13 mph /  20.9 km/h 78 % 0 in /  0.0 mm 0 W/m2
18:45 42.3 °F /  5.7 °C 36 °F /  2.2 °C 30.3 in /  1025.3 hPa NW 2 mph /  3.2 km/h 11 mph /  17.7 km/h 78 % 0 in /  0.0 mm 0 W/m2
18:55 42.4 °F /  5.8 °C 35.8 °F /  2.1 °C 30.3 in /  1025.3 hPa WNW 9 mph /  14.5 km/h 12 mph /  19.3 km/h 77 % 0 in /  0.0 mm 0 W/m2
19:00 42.3 °F /  5.7 °C 35.6 °F /  2.0 °C 30.3 in /  1025.3 hPa NNW 6 mph /  9.7 km/h 11 mph /  17.7 km/h 77 % 0 in /  0.0 mm 0 W/m2
19:05 42.3 °F /  5.7 °C 35.2 °F /  1.8 °C 30.3 in /  1025.6 hPa WNW 12 mph /  19.3 km/h 14 mph /  22.5 km/h 76 % 0 in /  0.0 mm 0 W/m2
19:10 41.9 °F /  5.5 °C 34.9 °F /  1.6 °C 30.3 in /  1025.3 hPa WNW 3 mph /  4.8 km/h 14 mph /  22.5 km/h 76 % 0 in /  0.0 mm 0 W/m2
19:25 41.7 °F /  5.4 °C 35.1 °F /  1.7 °C 30.3 in /  1025.3 hPa NW 6 mph /  9.7 km/h 10 mph /  16.1 km/h 77 % 0 in /  0.0 mm 0 W/m2
19:35 41.9 °F /  5.5 °C 35.6 °F /  2.0 °C 30.3 in /  1025.6 hPa WNW 7 mph /  11.3 km/h 12 mph /  19.3 km/h 78 % 0 in /  0.0 mm 0 W/m2
19:45 42.1 °F /  5.6 °C 35.6 °F /  2.0 °C 30.3 in /  1025.6 hPa NW 2 mph /  3.2 km/h 12 mph /  19.3 km/h 78 % 0 in /  0.0 mm 0 W/m2
19:50 41.7 °F /  5.4 °C 35.4 °F /  1.9 °C 30.3 in /  1025.6 hPa WNW 7 mph /  11.3 km/h 10 mph /  16.1 km/h 78 % 0 in /  0.0 mm 0 W/m2
20:00 41.5 °F /  5.3 °C 35.2 °F /  1.8 °C 30.3 in /  1026.0 hPa NW 4 mph /  6.4 km/h 11 mph /  17.7 km/h 78 % 0 in /  0.0 mm 0 W/m2
20:05 41.5 °F /  5.3 °C 35.4 °F /  1.9 °C 30.3 in /  1026.0 hPa NW 7 mph /  11.3 km/h 11 mph /  17.7 km/h 79 % 0 in /  0.0 mm 0 W/m2
20:10 41.2 °F /  5.1 °C 35.2 °F /  1.8 °C 30.3 in /  1026.0 hPa NW 4 mph /  6.4 km/h 11 mph /  17.7 km/h 79 % 0 in /  0.0 mm 0 W/m2
20:20 41 °F /  5.0 °C 35.2 °F /  1.8 °C 30.3 in /  1026.0 hPa NW 3 mph /  4.8 km/h 10 mph /  16.1 km/h 80 % 0 in /  0.0 mm 0 W/m2
20:25 41 °F /  5.0 °C 35.6 °F /  2.0 °C 30.3 in /  1026.0 hPa WNW 4 mph /  6.4 km/h 11 mph /  17.7 km/h 81 % 0 in /  0.0 mm 0 W/m2
20:35 41.2 °F /  5.1 °C 35.4 °F /  1.9 °C 30.3 in /  1026.0 hPa NW 4 mph /  6.4 km/h 9 mph /  14.5 km/h 80 % 0 in /  0.0 mm 0 W/m2
20:40 40.3 °F /  4.6 °C 34.9 °F /  1.6 °C 30.3 in /  1026.0 hPa NW 6 mph /  9.7 km/h 7 mph /  11.3 km/h 81 % 0 in /  0.0 mm 0 W/m2
20:50 39.6 °F /  4.2 °C 34.9 °F /  1.6 °C 30.3 in /  1025.6 hPa NW 3 mph /  4.8 km/h 10 mph /  16.1 km/h 83 % 0 in /  0.0 mm 0 W/m2
21:05 39.7 °F /  4.3 °C 35.4 °F /  1.9 °C 30.3 in /  1026.0 hPa Calm   11 mph /  17.7 km/h 84 % 0 in /  0.0 mm 0 W/m2
21:15 39.6 °F /  4.2 °C 35.2 °F /  1.8 °C 30.3 in /  1026.0 hPa West 4 mph /  6.4 km/h 10 mph /  16.1 km/h 84 % 0 in /  0.0 mm 0 W/m2
21:20 39.4 °F /  4.1 °C 34.9 °F /  1.6 °C 30.3 in /  1026.0 hPa NNW 5 mph /  8.0 km/h 10 mph /  16.1 km/h 84 % 0 in /  0.0 mm 0 W/m2
21:25 39.4 °F /  4.1 °C 34.9 °F /  1.6 °C 30.3 in /  1026.0 hPa NW 5 mph /  8.0 km/h 7 mph /  11.3 km/h 84 % 0 in /  0.0 mm 0 W/m2
21:30 39 °F /  3.9 °C 34.7 °F /  1.5 °C 30.3 in /  1026.0 hPa West 4 mph /  6.4 km/h 9 mph /  14.5 km/h 84 % 0 in /  0.0 mm 0 W/m2
21:35 39.4 °F /  4.1 °C 35.2 °F /  1.8 °C 30.3 in /  1026.0 hPa NW 3 mph /  4.8 km/h 9 mph /  14.5 km/h 85 % 0 in /  0.0 mm 0 W/m2
21:40 39.4 °F /  4.1 °C 35.2 °F /  1.8 °C 30.3 in /  1026.0 hPa NNW 5 mph /  8.0 km/h 8 mph /  12.9 km/h 85 % 0 in /  0.0 mm 0 W/m2
21:45 39.6 °F /  4.2 °C 35.1 °F /  1.7 °C 30.3 in /  1026.0 hPa NW 4 mph /  6.4 km/h 10 mph /  16.1 km/h 84 % 0 in /  0.0 mm 0 W/m2
21:50 39.4 °F /  4.1 °C 34.9 °F /  1.6 °C 30.3 in /  1026.0 hPa North 6 mph /  9.7 km/h 10 mph /  16.1 km/h 84 % 0 in /  0.0 mm 0 W/m2
21:55 38.8 °F /  3.8 °C 34.7 °F /  1.5 °C 30.3 in /  1026.0 hPa NW 1 mph /  1.6 km/h 8 mph /  12.9 km/h 85 % 0 in /  0.0 mm 0 W/m2
22:00 38.7 °F /  3.7 °C 34.5 °F /  1.4 °C 30.3 in /  1026.0 hPa NW 2 mph /  3.2 km/h 6 mph /  9.7 km/h 85 % 0 in /  0.0 mm 0 W/m2
22:05 37.9 °F /  3.3 °C 34.2 °F /  1.2 °C 30.3 in /  1026.0 hPa Calm   5 mph /  8.0 km/h 86 % 0 in /  0.0 mm 0 W/m2
22:25 36.9 °F /  2.7 °C 33.8 °F /  1.0 °C 30.3 in /  1026.0 hPa Calm   4 mph /  6.4 km/h 89 % 0 in /  0.0 mm 0 W/m2
22:35 36.1 °F /  2.3 °C 33.3 °F /  0.7 °C 30.3 in /  1026.0 hPa NW 2 mph /  3.2 km/h 5 mph /  8.0 km/h 89 % 0 in /  0.0 mm 0 W/m2
22:45 36 °F /  2.2 °C 33.3 °F /  0.7 °C 30.3 in /  1026.3 hPa NW 3 mph /  4.8 km/h 5 mph /  8.0 km/h 90 % 0 in /  0.0 mm 0 W/m2
22:50 36.1 °F /  2.3 °C 33.8 °F /  1.0 °C 30.3 in /  1026.3 hPa WNW 1 mph /  1.6 km/h 5 mph /  8.0 km/h 91 % 0 in /  0.0 mm 0 W/m2
22:55 36.1 °F /  2.3 °C 33.8 °F /  1.0 °C 30.3 in /  1026.3 hPa Calm   5 mph /  8.0 km/h 91 % 0 in /  0.0 mm 0 W/m2
23:00 36.3 °F /  2.4 °C 34 °F /  1.1 °C 30.3 in /  1026.0 hPa WNW 3 mph /  4.8 km/h 8 mph /  12.9 km/h 91 % 0 in /  0.0 mm 0 W/m2
23:05 36.9 °F /  2.7 °C 34.2 °F /  1.2 °C 30.3 in /  1026.0 hPa NW 4 mph /  6.4 km/h 8 mph /  12.9 km/h 90 % 0 in /  0.0 mm 0 W/m2
23:10 37.2 °F /  2.9 °C 34.7 °F /  1.5 °C 30.3 in /  1026.0 hPa NW 5 mph /  8.0 km/h 12 mph /  19.3 km/h 90 % 0 in /  0.0 mm 0 W/m2
23:15 37.9 °F /  3.3 °C 34.9 °F /  1.6 °C 30.3 in /  1026.0 hPa NNW 4 mph /  6.4 km/h 12 mph /  19.3 km/h 89 % 0 in /  0.0 mm 0 W/m2
23:20 37.9 °F /  3.3 °C 34.7 °F /  1.5 °C 30.3 in /  1026.0 hPa NNW 3 mph /  4.8 km/h 10 mph /  16.1 km/h 88 % 0 in /  0.0 mm 0 W/m2
23:30 37.8 °F /  3.2 °C 34.2 °F /  1.2 °C 30.3 in /  1026.0 hPa WNW 4 mph /  6.4 km/h 7 mph /  11.3 km/h 87 % 0 in /  0.0 mm 0 W/m2
23:35 37.4 °F /  3.0 °C 33.8 °F /  1.0 °C 30.3 in /  1026.0 hPa North 3 mph /  4.8 km/h 8 mph /  12.9 km/h 87 % 0 in /  0.0 mm 0 W/m2
23:50 37 °F /  2.8 °C 33.8 °F /  1.0 °C 30.3 in /  1026.0 hPa NNW 4 mph /  6.4 km/h 8 mph /  12.9 km/h 88 % 0 in /  0.0 mm 0 W/m2
23:55 36.9 °F /  2.7 °C 33.6 °F /  0.9 °C 30.3 in /  1026.0 hPa NW 3 mph /  4.8 km/h 8 mph /  12.9 km/h 88 % 0 in /  0.0 mm 0 W/m2
Avec l'autorisation de Weather Underground - 1.5 mb